Time;durP1;ratioP1;P1;durP2;ratioP2;P2;SDS_P1;SDS_P2;PMS_P1;PMS_P2;Temp;Humidity;BMP_temperature;BMP_pressure;BME280_temperature;BME280_humidity;BME280_pressure;Samples;Min_cycle;Max_cycle;Signal;HPM_P1;HPM_P2
2023/04/13 00:02:22;;;;;;;7.40;3.43;;;;;;;;;;5122107;28;20532;-70
2023/04/13 00:04:56;;;;;;;6.33;3.17;;;;;;;;;;5122740;28;20472;-70
2023/04/13 00:07:27;;;;;;;8.30;3.70;;;;;;;;;;5117868;28;20454;-70
2023/04/13 00:10:01;;;;;;;10.73;4.40;;;;;;;;;;5116330;28;20471;-70
2023/04/13 00:12:29;;;;;;;5.10;3.10;;;;;;;;;;5115815;28;20457;-70
2023/04/13 00:14:57;;;;;;;4.57;3.30;;;;;;;;;;5117988;28;20519;-69
2023/04/13 00:17:28;;;;;;;5.53;3.63;;;;;;;;;;5115880;28;20512;-70
2023/04/13 00:19:58;;;;;;;8.40;4.10;;;;;;;;;;5129318;27;20474;-70
2023/04/13 00:22:27;;;;;;;7.53;4.23;;;;;;;;;;5120060;27;20465;-69
2023/04/13 00:24:56;;;;;;;11.10;4.00;;;;;;;;;;5121054;27;20442;-70
2023/04/13 00:27:26;;;;;;;15.13;5.23;;;;;;;;;;5122038;27;20459;-70
2023/04/13 00:29:55;;;;;;;9.00;4.47;;;;;;;;;;5120908;28;20455;-70
2023/04/13 00:32:22;;;;;;;7.83;4.73;;;;;;;;;;5122401;28;20909;-69
2023/04/13 00:34:51;;;;;;;10.47;4.73;;;;;;;;;;5130197;27;20541;-70
2023/04/13 00:37:20;;;;;;;7.43;4.57;;;;;;;;;;5127334;27;20578;-69
2023/04/13 00:39:50;;;;;;;10.43;4.20;;;;;;;;;;5120906;27;20447;-69
2023/04/13 00:42:20;;;;;;;8.10;4.20;;;;;;;;;;5129556;27;20483;-70
2023/04/13 00:44:51;;;;;;;9.10;4.57;;;;;;;;;;5128712;27;20451;-69
2023/04/13 00:47:25;;;;;;;8.90;5.27;;;;;;;;;;5119704;28;20854;-69
2023/04/13 00:49:53;;;;;;;7.53;4.37;;;;;;;;;;5138221;27;20885;-69
2023/04/13 00:52:21;;;;;;;9.97;5.23;;;;;;;;;;5128344;27;20462;-69
2023/04/13 00:54:55;;;;;;;10.40;5.57;;;;;;;;;;5124878;27;20456;-70
2023/04/13 00:57:22;;;;;;;7.33;4.57;;;;;;;;;;5125940;27;20489;-70
2023/04/13 00:59:51;;;;;;;9.63;4.57;;;;;;;;;;5125063;27;20534;-70
2023/04/13 01:02:21;;;;;;;16.33;6.90;;;;;;;;;;5126380;27;20534;-70
2023/04/13 01:04:50;;;;;;;9.70;4.67;;;;;;;;;;5123302;27;20494;-70
2023/04/13 01:07:25;;;;;;;8.80;4.93;;;;;;;;;;5122684;27;20892;-70
2023/04/13 01:09:57;;;;;;;9.60;5.50;;;;;;;;;;5127022;27;20453;-70
2023/04/13 01:12:29;;;;;;;7.10;4.40;;;;;;;;;;5126631;27;20724;-70
2023/04/13 01:14:59;;;;;;;11.27;5.33;;;;;;;;;;5126664;27;20443;-71
2023/04/13 01:17:31;;;;;;;9.83;5.40;;;;;;;;;;5128113;27;21021;-68
2023/04/13 01:20:00;;;;;;;9.57;4.90;;;;;;;;;;5127493;27;20463;-69
2023/04/13 01:22:30;;;;;;;7.00;4.40;;;;;;;;;;5126169;27;20550;-69
2023/04/13 01:25:13;;;;;;;9.63;5.93;;;;;;;;;;5128527;27;20452;-68
2023/04/13 01:27:45;;;;;;;9.07;5.47;;;;;;;;;;5127274;27;20432;-69
2023/04/13 01:30:20;;;;;;;10.80;5.07;;;;;;;;;;5116949;27;20451;-70
2023/04/13 01:32:48;;;;;;;10.03;4.90;;;;;;;;;;5118162;28;20454;-70
2023/04/13 01:35:18;;;;;;;9.67;4.77;;;;;;;;;;5117923;28;20451;-70
2023/04/13 01:37:49;;;;;;;11.07;5.23;;;;;;;;;;5125054;27;20551;-70
2023/04/13 01:40:21;;;;;;;14.10;5.40;;;;;;;;;;5125577;27;20447;-70
2023/04/13 01:42:53;;;;;;;12.10;5.10;;;;;;;;;;5127473;27;20441;-70
2023/04/13 01:45:22;;;;;;;9.63;5.00;;;;;;;;;;5125095;27;20447;-70
2023/04/13 01:47:54;;;;;;;11.67;5.47;;;;;;;;;;5130124;27;20715;-70
2023/04/13 01:50:27;;;;;;;10.97;5.87;;;;;;;;;;5129407;27;20730;-70
2023/04/13 01:52:56;;;;;;;10.30;5.53;;;;;;;;;;5125263;27;20541;-70
2023/04/13 01:55:24;;;;;;;14.87;6.57;;;;;;;;;;5120778;27;20459;-70
2023/04/13 01:57:54;;;;;;;8.60;5.53;;;;;;;;;;5117442;28;20487;-70
2023/04/13 02:00:22;;;;;;;11.00;5.90;;;;;;;;;;5117856;28;20510;-70
2023/04/13 02:02:53;;;;;;;10.20;5.67;;;;;;;;;;5117820;28;20456;-70
2023/04/13 02:05:20;;;;;;;9.27;5.00;;;;;;;;;;5116727;28;20547;-70
2023/04/13 02:07:48;;;;;;;10.67;4.20;;;;;;;;;;5117889;28;20504;-70
2023/04/13 02:10:19;;;;;;;10.27;5.60;;;;;;;;;;5118012;28;20439;-70
2023/04/13 02:12:47;;;;;;;9.30;4.90;;;;;;;;;;5117539;28;20546;-70
2023/04/13 02:15:19;;;;;;;8.30;5.10;;;;;;;;;;5118097;28;20448;-70
2023/04/13 02:17:46;;;;;;;10.13;6.27;;;;;;;;;;5118631;27;20491;-69
2023/04/13 02:20:20;;;;;;;10.13;5.07;;;;;;;;;;5116503;28;20448;-69
2023/04/13 02:22:48;;;;;;;9.63;5.23;;;;;;;;;;5118234;28;20992;-69
2023/04/13 02:25:16;;;;;;;12.13;6.00;;;;;;;;;;5117288;28;20696;-70
2023/04/13 02:27:44;;;;;;;12.40;5.93;;;;;;;;;;5117833;28;20451;-70
2023/04/13 02:30:12;;;;;;;12.40;5.53;;;;;;;;;;5118468;28;20488;-69
2023/04/13 02:32:43;;;;;;;9.20;5.43;;;;;;;;;;5111637;28;20456;-69
2023/04/13 02:35:11;;;;;;;8.70;5.67;;;;;;;;;;5098729;28;20460;-70
2023/04/13 02:37:40;;;;;;;9.77;5.63;;;;;;;;;;5096617;28;20480;-69
2023/04/13 02:40:08;;;;;;;15.33;7.10;;;;;;;;;;5096909;28;20460;-69
2023/04/13 02:42:36;;;;;;;10.43;6.57;;;;;;;;;;5097389;28;20427;-69
2023/04/13 02:45:04;;;;;;;11.70;7.13;;;;;;;;;;5096671;28;20467;-70
2023/04/13 02:47:32;;;;;;;10.00;5.80;;;;;;;;;;5096180;28;20452;-69
2023/04/13 02:50:01;;;;;;;11.77;6.43;;;;;;;;;;5096627;28;20543;-70
2023/04/13 02:52:28;;;;;;;11.97;5.43;;;;;;;;;;5097814;28;20938;-70
2023/04/13 02:54:56;;;;;;;13.07;7.37;;;;;;;;;;5097626;28;20454;-70
2023/04/13 02:57:24;;;;;;;11.37;7.00;;;;;;;;;;5097092;28;20487;-70
2023/04/13 02:59:51;;;;;;;18.50;7.80;;;;;;;;;;5101949;28;20486;-70
2023/04/13 03:02:19;;;;;;;12.07;6.77;;;;;;;;;;5117709;28;20454;-70
2023/04/13 03:04:47;;;;;;;15.93;8.10;;;;;;;;;;5118129;28;20539;-70
2023/04/13 03:07:17;;;;;;;12.20;7.73;;;;;;;;;;5117548;28;20546;-70
2023/04/13 03:09:46;;;;;;;15.33;7.73;;;;;;;;;;5117377;28;20893;-70
2023/04/13 03:12:14;;;;;;;12.00;7.00;;;;;;;;;;5117013;28;20530;-70
2023/04/13 03:14:41;;;;;;;15.57;7.83;;;;;;;;;;5099151;28;20466;-70
2023/04/13 03:17:10;;;;;;;15.53;7.87;;;;;;;;;;5095028;28;20534;-70
2023/04/13 03:19:37;;;;;;;13.67;8.67;;;;;;;;;;5093900;28;20471;-70
2023/04/13 03:22:05;;;;;;;14.10;7.90;;;;;;;;;;5093557;28;20753;-70
2023/04/13 03:24:34;;;;;;;18.83;8.60;;;;;;;;;;5092201;28;20450;-70
2023/04/13 03:27:03;;;;;;;15.70;7.80;;;;;;;;;;5098826;28;20851;-71
2023/04/13 03:29:30;;;;;;;20.60;8.60;;;;;;;;;;5113623;28;20754;-70
2023/04/13 03:31:57;;;;;;;12.40;8.13;;;;;;;;;;5114680;28;20451;-70
2023/04/13 03:34:25;;;;;;;15.60;9.07;;;;;;;;;;5112953;28;20519;-70
2023/04/13 03:36:52;;;;;;;14.93;8.97;;;;;;;;;;5113419;28;20490;-70
2023/04/13 03:39:20;;;;;;;15.63;8.10;;;;;;;;;;5114213;28;20465;-70
2023/04/13 03:41:49;;;;;;;16.43;8.70;;;;;;;;;;5096859;28;20511;-71
2023/04/13 03:44:16;;;;;;;15.10;8.80;;;;;;;;;;5094790;28;20456;-70
2023/04/13 03:46:44;;;;;;;16.10;9.13;;;;;;;;;;5095152;28;20478;-70
2023/04/13 03:49:12;;;;;;;16.47;8.67;;;;;;;;;;5095447;28;20501;-70
2023/04/13 03:51:39;;;;;;;13.23;8.27;;;;;;;;;;5095416;28;20517;-70
2023/04/13 03:54:07;;;;;;;15.70;8.40;;;;;;;;;;5097899;28;20456;-71
2023/04/13 03:56:34;;;;;;;19.47;8.43;;;;;;;;;;5114059;28;20447;-70
2023/04/13 03:59:04;;;;;;;17.73;8.40;;;;;;;;;;5115429;28;20475;-70
2023/04/13 04:01:31;;;;;;;15.80;8.70;;;;;;;;;;5116351;28;20870;-70
2023/04/13 04:03:59;;;;;;;20.00;9.00;;;;;;;;;;5114039;28;20504;-70
2023/04/13 04:06:27;;;;;;;18.50;8.63;;;;;;;;;;5112659;28;20508;-70
2023/04/13 04:08:55;;;;;;;19.27;8.40;;;;;;;;;;5106256;28;20452;-70
2023/04/13 04:11:22;;;;;;;16.90;9.30;;;;;;;;;;5115144;28;20535;-70
2023/04/13 04:13:50;;;;;;;12.57;7.93;;;;;;;;;;5113802;28;20459;-70
2023/04/13 04:16:19;;;;;;;16.30;8.97;;;;;;;;;;5111027;28;20501;-70
2023/04/13 04:18:47;;;;;;;16.23;8.50;;;;;;;;;;5112261;28;20483;-70
2023/04/13 04:21:14;;;;;;;13.70;8.37;;;;;;;;;;5112346;28;20443;-70
2023/04/13 04:23:43;;;;;;;14.53;9.33;;;;;;;;;;5112132;28;20447;-70
2023/04/13 04:26:12;;;;;;;17.73;8.43;;;;;;;;;;5112323;28;20843;-70
2023/04/13 04:28:40;;;;;;;18.17;8.93;;;;;;;;;;5111856;28;20527;-70
2023/04/13 04:31:09;;;;;;;13.80;7.93;;;;;;;;;;5112404;28;20458;-71
2023/04/13 04:33:38;;;;;;;15.00;8.60;;;;;;;;;;5114195;28;20451;-70
2023/04/13 04:36:07;;;;;;;15.80;7.20;;;;;;;;;;5113015;28;20459;-70
2023/04/13 04:38:35;;;;;;;13.30;7.63;;;;;;;;;;5113070;28;20478;-70
2023/04/13 04:41:02;;;;;;;12.67;7.53;;;;;;;;;;5113814;28;20447;-70
2023/04/13 04:43:31;;;;;;;18.13;9.53;;;;;;;;;;5113712;28;20959;-70
2023/04/13 04:46:01;;;;;;;17.10;9.57;;;;;;;;;;5112896;28;20753;-70
2023/04/13 04:48:32;;;;;;;20.70;9.70;;;;;;;;;;5112955;28;20583;-70
2023/04/13 04:51:01;;;;;;;19.63;8.13;;;;;;;;;;5115417;28;20512;-70
2023/04/13 04:53:29;;;;;;;16.70;7.83;;;;;;;;;;5115606;28;20451;-69
2023/04/13 04:55:59;;;;;;;13.63;7.97;;;;;;;;;;5113755;28;20471;-70
2023/04/13 04:58:27;;;;;;;14.20;8.10;;;;;;;;;;5113154;28;20504;-70
2023/04/13 05:00:55;;;;;;;17.00;8.00;;;;;;;;;;5114016;28;21029;-70
2023/04/13 05:03:24;;;;;;;13.07;8.30;;;;;;;;;;5110435;28;20454;-70
2023/04/13 05:05:52;;;;;;;13.90;7.13;;;;;;;;;;5114162;28;20841;-69
2023/04/13 05:08:20;;;;;;;14.50;7.60;;;;;;;;;;5113957;28;20443;-70
2023/04/13 05:10:48;;;;;;;18.30;8.27;;;;;;;;;;5115749;28;20447;-69
2023/04/13 05:13:16;;;;;;;15.30;7.53;;;;;;;;;;5113681;28;20736;-69
2023/04/13 05:15:43;;;;;;;11.90;7.40;;;;;;;;;;5113189;28;20598;-69
2023/04/13 05:18:12;;;;;;;14.03;7.00;;;;;;;;;;5128048;27;20547;-69
2023/04/13 05:20:39;;;;;;;12.93;7.00;;;;;;;;;;5134844;27;20434;-69
2023/04/13 05:23:07;;;;;;;12.23;6.40;;;;;;;;;;5112723;28;20458;-70
2023/04/13 05:25:38;;;;;;;13.30;7.13;;;;;;;;;;5111898;27;20539;-69
2023/04/13 05:28:05;;;;;;;12.60;5.83;;;;;;;;;;5111657;27;20443;-70
2023/04/13 05:30:34;;;;;;;9.03;5.47;;;;;;;;;;5111193;28;20546;-70
2023/04/13 05:33:05;;;;;;;7.73;5.07;;;;;;;;;;5110803;28;21137;-70
2023/04/13 05:35:32;;;;;;;9.40;6.33;;;;;;;;;;5109929;28;20455;-70
2023/04/13 05:38:00;;;;;;;14.83;6.30;;;;;;;;;;5108838;28;20498;-69
2023/04/13 05:40:27;;;;;;;8.10;5.30;;;;;;;;;;5111198;28;20787;-69
2023/04/13 05:42:56;;;;;;;7.70;5.80;;;;;;;;;;5108384;28;20617;-69
2023/04/13 05:45:24;;;;;;;7.40;4.60;;;;;;;;;;5103566;28;20463;-69
2023/04/13 05:47:52;;;;;;;11.50;5.93;;;;;;;;;;5102834;28;20751;-70
2023/04/13 05:50:19;;;;;;;5.87;4.17;;;;;;;;;;5101110;28;20943;-70
2023/04/13 05:52:47;;;;;;;13.10;5.23;;;;;;;;;;5097582;28;20483;-69
2023/04/13 05:55:15;;;;;;;8.77;4.67;;;;;;;;;;5098869;28;20763;-69
2023/04/13 05:57:49;;;;;;;10.50;6.00;;;;;;;;;;5098630;28;20486;-69
2023/04/13 06:00:24;;;;;;;9.60;4.13;;;;;;;;;;5083708;28;20498;-71
2023/04/13 06:02:52;;;;;;;5.57;3.47;;;;;;;;;;5080412;28;20873;-69
2023/04/13 06:05:21;;;;;;;7.17;3.93;;;;;;;;;;5083751;28;20554;-71
2023/04/13 06:07:49;;;;;;;8.37;4.17;;;;;;;;;;5098338;28;20596;-69
2023/04/13 06:10:20;;;;;;;4.93;2.80;;;;;;;;;;5104566;28;20450;-69
2023/04/13 06:12:49;;;;;;;6.37;3.60;;;;;;;;;;5101747;28;20467;-69
2023/04/13 06:15:17;;;;;;;5.30;2.23;;;;;;;;;;5098969;28;20512;-70
2023/04/13 06:17:47;;;;;;;4.73;2.80;;;;;;;;;;5104103;28;20526;-69
2023/04/13 06:20:21;;;;;;;5.30;3.00;;;;;;;;;;5100965;28;20607;-69
2023/04/13 06:22:49;;;;;;;12.03;3.40;;;;;;;;;;5099721;28;20457;-71
2023/04/13 06:25:17;;;;;;;3.20;1.70;;;;;;;;;;5101861;28;20467;-71
2023/04/13 06:27:49;;;;;;;3.13;1.90;;;;;;;;;;5102618;28;20443;-72
2023/04/13 06:30:20;;;;;;;3.50;1.77;;;;;;;;;;5102098;28;20675;-71
2023/04/13 06:32:49;;;;;;;4.27;1.97;;;;;;;;;;5100674;28;20523;-70
2023/04/13 06:35:16;;;;;;;2.97;1.33;;;;;;;;;;5103165;28;20455;-71
2023/04/13 06:37:44;;;;;;;3.27;1.57;;;;;;;;;;5107403;28;20479;-70
2023/04/13 06:40:13;;;;;;;3.70;2.10;;;;;;;;;;5106894;28;20491;-70
2023/04/13 06:42:42;;;;;;;2.80;1.37;;;;;;;;;;5108567;28;20484;-70
2023/04/13 06:45:10;;;;;;;2.47;1.30;;;;;;;;;;5107913;28;20513;-69
2023/04/13 06:47:41;;;;;;;3.17;1.33;;;;;;;;;;5103698;28;20478;-70
2023/04/13 06:50:12;;;;;;;3.17;1.20;;;;;;;;;;5108287;27;20462;-70
2023/04/13 06:52:44;;;;;;;2.60;1.00;;;;;;;;;;5109949;28;20455;-72
2023/04/13 06:55:11;;;;;;;5.83;1.50;;;;;;;;;;5110795;28;20448;-71
2023/04/13 06:57:39;;;;;;;3.40;1.10;;;;;;;;;;5109418;28;20451;-71
2023/04/13 07:00:09;;;;;;;1.90;1.10;;;;;;;;;;5108652;28;20531;-71
2023/04/13 07:02:37;;;;;;;2.43;1.07;;;;;;;;;;5110943;28;20459;-71
2023/04/13 07:05:05;;;;;;;2.83;1.10;;;;;;;;;;5110377;28;20869;-71
2023/04/13 07:07:37;;;;;;;2.53;1.17;;;;;;;;;;5108902;28;20548;-70
2023/04/13 07:10:12;;;;;;;6.63;1.93;;;;;;;;;;5109222;28;20443;-71
2023/04/13 07:12:39;;;;;;;2.83;0.87;;;;;;;;;;5109047;28;20449;-70
2023/04/13 07:15:11;;;;;;;1.60;0.70;;;;;;;;;;5106601;28;20456;-71
2023/04/13 07:17:39;;;;;;;2.10;0.70;;;;;;;;;;5067380;28;20439;-70
2023/04/13 07:20:22;;;;;;;;;;;;;;;;;;;;;
2023/04/13 07:22:55;;;;;;;1.63;0.70;;;;;;;;;;5068915;28;20771;-70
2023/04/13 07:25:22;;;;;;;3.83;1.03;;;;;;;;;;5070059;28;20611;-70
2023/04/13 07:27:50;;;;;;;1.40;0.67;;;;;;;;;;5068987;28;20467;-70
2023/04/13 07:30:27;;;;;;;3.70;0.70;;;;;;;;;;5068075;28;20618;-70
2023/04/13 07:32:58;;;;;;;2.97;1.27;;;;;;;;;;5066587;28;20487;-70
2023/04/13 07:35:26;;;;;;;1.70;0.73;;;;;;;;;;5066226;28;20582;-70
2023/04/13 07:37:55;;;;;;;2.63;0.90;;;;;;;;;;5065700;28;20512;-70
2023/04/13 07:40:29;;;;;;;2.93;1.00;;;;;;;;;;5066657;28;20471;-71
2023/04/13 07:43:03;;;;;;;2.53;0.90;;;;;;;;;;5070039;28;20469;-70
2023/04/13 07:48:15;;;;;;;3.17;1.00;;;;;;;;;;5052455;28;20446;-70
2023/04/13 07:50:49;;;;;;;1.73;0.70;;;;;;;;;;5052118;28;20434;-70
2023/04/13 07:53:19;;;;;;;2.03;0.93;;;;;;;;;;5051800;28;20460;-70
2023/04/13 07:55:47;;;;;;;1.90;0.80;;;;;;;;;;5061275;28;20876;-70
2023/04/13 07:58:14;;;;;;;1.77;0.70;;;;;;;;;;5064665;28;20717;-72
2023/04/13 08:00:50;;;;;;;4.80;2.57;;;;;;;;;;5064624;28;20957;-72
2023/04/13 08:03:24;;;;;;;3.93;1.00;;;;;;;;;;5062858;28;20469;-71
2023/04/13 08:05:56;;;;;;;3.80;1.03;;;;;;;;;;5052590;28;20528;-71
2023/04/13 08:08:25;;;;;;;5.70;0.90;;;;;;;;;;5062104;28;20471;-70
2023/04/13 08:10:54;;;;;;;3.77;1.07;;;;;;;;;;5067686;28;20468;-71
2023/04/13 08:13:22;;;;;;;1.97;0.83;;;;;;;;;;5065711;28;20830;-71
2023/04/13 08:15:51;;;;;;;3.00;1.07;;;;;;;;;;5070751;28;20612;-71
2023/04/13 08:18:20;;;;;;;1.83;0.90;;;;;;;;;;5088785;28;20567;-72
2023/04/13 08:20:49;;;;;;;5.00;1.10;;;;;;;;;;5105438;28;20870;-71
2023/04/13 08:23:20;;;;;;;2.40;0.90;;;;;;;;;;5106644;28;20471;-71
2023/04/13 08:25:53;;;;;;;4.93;1.13;;;;;;;;;;5110198;28;20500;-70
2023/04/13 08:28:21;;;;;;;2.90;1.10;;;;;;;;;;5110423;28;20451;-70
2023/04/13 08:30:49;;;;;;;2.80;1.30;;;;;;;;;;5111479;28;20459;-70
2023/04/13 08:33:30;;;;;;;2.07;1.10;;;;;;;;;;5111050;28;20439;-72
2023/04/13 08:36:00;;;;;;;1.87;0.80;;;;;;;;;;5110618;28;20455;-72
2023/04/13 08:38:28;;;;;;;4.90;1.43;;;;;;;;;;5110095;28;20491;-70
2023/04/13 08:41:03;;;;;;;2.90;0.90;;;;;;;;;;5111280;28;20488;-70
2023/04/13 08:43:34;;;;;;;3.80;1.20;;;;;;;;;;5112650;28;20561;-70
2023/04/13 08:46:02;;;;;;;2.30;1.13;;;;;;;;;;5112440;28;20528;-70
2023/04/13 08:48:30;;;;;;;3.93;0.87;;;;;;;;;;5112790;28;20461;-70
2023/04/13 08:51:04;;;;;;;1.60;0.90;;;;;;;;;;5113869;28;20514;-70
2023/04/13 08:53:32;;;;;;;2.90;0.93;;;;;;;;;;5112133;28;20446;-70
2023/04/13 08:56:07;;;;;;;2.00;0.70;;;;;;;;;;5110754;28;20505;-72
2023/04/13 08:58:37;;;;;;;1.80;0.83;;;;;;;;;;5101052;28;20925;-72
2023/04/13 09:01:12;;;;;;;4.70;2.00;;;;;;;;;;5104078;28;20471;-71
2023/04/13 09:03:55;;;;;;;2.60;1.00;;;;;;;;;;5093299;28;20467;-71
2023/04/13 09:06:27;;;;;;;2.47;1.00;;;;;;;;;;5100363;28;20478;-71
2023/04/13 09:09:01;;;;;;;2.97;0.90;;;;;;;;;;5092081;28;21078;-72
2023/04/13 09:11:31;;;;;;;1.50;0.80;;;;;;;;;;5092494;28;20443;-71
2023/04/13 09:13:58;;;;;;;1.90;1.00;;;;;;;;;;5089342;28;20754;-71
2023/04/13 09:16:26;;;;;;;2.90;1.03;;;;;;;;;;5094779;28;20494;-72
2023/04/13 09:19:01;;;;;;;2.00;0.90;;;;;;;;;;5111100;28;20490;-71
2023/04/13 09:21:44;;;;;;;2.50;0.90;;;;;;;;;;5111024;28;20459;-71
2023/04/13 09:24:14;;;;;;;1.60;0.90;;;;;;;;;;5111527;28;20435;-72
2023/04/13 09:26:45;;;;;;;4.37;1.47;;;;;;;;;;5102329;28;20462;-70
2023/04/13 09:29:25;;;;;;;2.17;1.20;;;;;;;;;;5103298;28;20867;-72
2023/04/13 09:31:57;;;;;;;3.60;1.00;;;;;;;;;;5092422;28;20451;-72
2023/04/13 09:34:29;;;;;;;1.77;0.70;;;;;;;;;;5088913;28;20456;-72
2023/04/13 09:37:00;;;;;;;1.87;0.77;;;;;;;;;;5109708;28;21070;-72
2023/04/13 09:39:28;;;;;;;2.00;0.87;;;;;;;;;;5109469;28;20483;-71
2023/04/13 09:41:58;;;;;;;2.53;0.80;;;;;;;;;;5094459;28;20544;-72
2023/04/13 09:44:29;;;;;;;1.60;0.80;;;;;;;;;;5104145;28;20451;-72
2023/04/13 09:47:01;;;;;;;2.50;1.00;;;;;;;;;;5108656;28;20466;-72
2023/04/13 09:49:37;;;;;;;2.30;1.00;;;;;;;;;;5105455;28;20519;-70
2023/04/13 09:52:07;;;;;;;1.77;0.80;;;;;;;;;;5111338;28;20470;-71
2023/04/13 09:54:41;;;;;;;1.70;0.80;;;;;;;;;;5110386;28;20466;-71
2023/04/13 09:57:27;;;;;;;3.07;1.03;;;;;;;;;;5098405;28;20464;-72
2023/04/13 09:59:59;;;;;;;1.50;0.70;;;;;;;;;;5091461;28;20480;-71
2023/04/13 10:02:28;;;;;;;2.30;1.00;;;;;;;;;;5105278;28;20466;-70
2023/04/13 10:05:10;;;;;;;2.83;1.13;;;;;;;;;;5102209;28;20485;-71
2023/04/13 10:08:09;;;;;;;1.70;0.70;;;;;;;;;;5099832;28;20759;-71
2023/04/13 10:19:36;;;;;;;2.97;0.70;;;;;;;;;;5104688;28;20823;-71
2023/04/13 10:22:05;;;;;;;1.87;0.90;;;;;;;;;;5106960;28;20555;-70
2023/04/13 10:25:04;;;;;;;2.30;0.70;;;;;;;;;;5096188;28;20455;-70
2023/04/13 10:27:32;;;;;;;1.80;0.93;;;;;;;;;;5087322;28;20444;-71
2023/04/13 10:30:03;;;;;;;2.03;0.83;;;;;;;;;;5086484;28;20433;-70
2023/04/13 10:32:31;;;;;;;2.20;0.77;;;;;;;;;;5084934;28;20444;-70
2023/04/13 10:35:10;;;;;;;2.03;0.70;;;;;;;;;;5104179;28;20601;-71
2023/04/13 10:37:41;;;;;;;3.10;0.83;;;;;;;;;;5104028;28;20885;-69
2023/04/13 10:40:22;;;;;;;1.93;0.60;;;;;;;;;;5104425;28;20487;-72
2023/04/13 10:42:53;;;;;;;2.00;0.90;;;;;;;;;;5093501;28;20956;-72
2023/04/13 10:45:35;;;;;;;1.60;0.80;;;;;;;;;;5086288;28;20750;-72
2023/04/13 10:48:19;;;;;;;2.40;0.93;;;;;;;;;;5102353;28;20455;-73
2023/04/13 10:50:59;;;;;;;2.37;1.00;;;;;;;;;;5108610;28;20914;-71
2023/04/13 10:53:31;;;;;;;2.53;0.90;;;;;;;;;;5105577;28;21103;-71
2023/04/13 10:56:00;;;;;;;2.20;1.10;;;;;;;;;;5106273;28;20756;-71
2023/04/13 10:58:28;;;;;;;2.73;1.30;;;;;;;;;;5103017;28;20450;-71
2023/04/13 11:00:56;;;;;;;3.07;1.57;;;;;;;;;;5106719;28;20467;-71
2023/04/13 11:03:28;;;;;;;2.53;1.03;;;;;;;;;;5106610;28;20463;-70
2023/04/13 11:06:02;;;;;;;2.70;1.30;;;;;;;;;;5104488;28;20474;-70
2023/04/13 11:08:38;;;;;;;5.03;1.80;;;;;;;;;;5092104;28;20472;-72
2023/04/13 11:11:06;;;;;;;14.23;9.10;;;;;;;;;;5083818;28;20574;-72
2023/04/13 11:13:35;;;;;;;4.80;1.60;;;;;;;;;;5103473;28;20465;-70
2023/04/13 11:16:10;;;;;;;2.00;1.10;;;;;;;;;;5091311;28;20462;-71
2023/04/13 11:18:39;;;;;;;2.13;1.00;;;;;;;;;;5122701;27;20547;-71
2023/04/13 11:21:14;;;;;;;3.43;1.67;;;;;;;;;;5129054;27;21058;-70
2023/04/13 11:23:54;;;;;;;5.10;1.67;;;;;;;;;;5102546;27;20463;-71
2023/04/13 11:26:53;;;;;;;1.83;1.00;;;;;;;;;;5100405;28;20553;-71
2023/04/13 11:29:22;;;;;;;2.10;1.10;;;;;;;;;;5092502;28;20458;-71
2023/04/13 11:34:52;;;;;;;3.00;1.80;;;;;;;;;;5094840;28;20462;-71
2023/04/13 11:37:21;;;;;;;2.43;1.10;;;;;;;;;;5102252;28;20540;-71
2023/04/13 11:39:52;;;;;;;2.47;1.00;;;;;;;;;;5108549;28;21052;-72
2023/04/13 11:42:23;;;;;;;2.70;1.40;;;;;;;;;;5108171;28;20466;-72
2023/04/13 11:44:51;;;;;;;2.23;1.37;;;;;;;;;;5103592;28;20516;-72
2023/04/13 11:47:19;;;;;;;2.40;1.03;;;;;;;;;;5106124;28;20869;-71
2023/04/13 11:49:52;;;;;;;3.10;1.00;;;;;;;;;;5107699;28;20491;-70
2023/04/13 11:52:30;;;;;;;2.03;1.10;;;;;;;;;;5110076;28;20462;-70
2023/04/13 11:55:03;;;;;;;1.80;0.80;;;;;;;;;;5127328;28;20462;-73
2023/04/13 11:57:39;;;;;;;3.20;1.20;;;;;;;;;;5112515;28;20464;-70
2023/04/13 12:00:27;;;;;;;1.57;0.77;;;;;;;;;;5100442;28;20589;-70
2023/04/13 12:03:26;;;;;;;2.10;1.03;;;;;;;;;;5096788;28;20913;-70
2023/04/13 12:06:02;;;;;;;1.60;0.80;;;;;;;;;;5110946;28;20455;-71
2023/04/13 12:08:30;;;;;;;4.17;1.77;;;;;;;;;;5108151;28;20557;-71
2023/04/13 12:11:04;;;;;;;1.70;0.90;;;;;;;;;;5106797;28;20572;-70
2023/04/13 12:13:39;;;;;;;1.70;0.80;;;;;;;;;;5104039;28;20466;-72
2023/04/13 12:16:16;;;;;;;1.73;1.00;;;;;;;;;;5110180;28;20832;-70
2023/04/13 12:18:48;;;;;;;5.20;1.63;;;;;;;;;;5103260;28;20463;-71
2023/04/13 12:21:17;;;;;;;3.20;1.80;;;;;;;;;;5092396;28;20645;-70
2023/04/13 12:23:59;;;;;;;2.20;0.80;;;;;;;;;;5092956;28;20452;-70
2023/04/13 12:26:35;;;;;;;2.70;1.60;;;;;;;;;;5110042;28;20439;-70
2023/04/13 12:29:04;;;;;;;4.20;1.13;;;;;;;;;;5109444;28;20482;-71
2023/04/13 12:31:35;;;;;;;3.10;1.73;;;;;;;;;;5105342;28;20753;-70
2023/04/13 12:34:04;;;;;;;2.47;1.20;;;;;;;;;;5089945;28;20447;-70
2023/04/13 12:36:34;;;;;;;2.47;1.20;;;;;;;;;;5093580;28;20459;-69
2023/04/13 12:39:05;;;;;;;2.50;1.17;;;;;;;;;;5109075;28;20874;-72
2023/04/13 12:41:38;;;;;;;1.60;0.83;;;;;;;;;;5110326;28;20486;-71
2023/04/13 12:44:14;;;;;;;3.03;1.40;;;;;;;;;;5106130;28;20447;-70
2023/04/13 12:46:42;;;;;;;2.37;1.40;;;;;;;;;;5107304;28;20719;-71
2023/04/13 12:49:10;;;;;;;3.00;0.90;;;;;;;;;;5107978;28;20940;-71
2023/04/13 12:51:47;;;;;;;2.73;1.10;;;;;;;;;;5111533;28;20467;-71
2023/04/13 12:54:16;;;;;;;2.10;0.90;;;;;;;;;;5105513;28;20757;-71
2023/04/13 12:56:58;;;;;;;2.17;1.23;;;;;;;;;;5105836;28;20466;-71
2023/04/13 12:59:31;;;;;;;2.57;1.23;;;;;;;;;;5054758;28;20733;-70
2023/04/13 13:02:08;;;;;;;2.27;1.17;;;;;;;;;;5106926;28;20946;-71
2023/04/13 13:04:46;;;;;;;2.37;1.23;;;;;;;;;;5107863;28;20458;-71
2023/04/13 13:07:14;;;;;;;1.70;1.10;;;;;;;;;;5108736;27;20643;-72
2023/04/13 13:09:44;;;;;;;1.80;1.13;;;;;;;;;;5111519;28;20451;-71
2023/04/13 13:12:28;;;;;;;3.20;1.23;;;;;;;;;;5112120;28;21032;-72
2023/04/13 13:15:18;;;;;;;3.60;1.40;;;;;;;;;;5108077;28;20506;-73
2023/04/13 13:18:02;;;;;;;2.20;1.30;;;;;;;;;;5088046;28;20871;-72
2023/04/13 13:20:40;;;;;;;2.07;1.20;;;;;;;;;;5092575;28;20493;-71
2023/04/13 13:23:12;;;;;;;3.87;1.40;;;;;;;;;;5108087;27;20833;-72
2023/04/13 13:25:42;;;;;;;1.87;1.20;;;;;;;;;;5086901;28;20554;-71
2023/04/13 13:28:12;;;;;;;2.13;1.13;;;;;;;;;;5084686;28;20501;-71
2023/04/13 13:30:39;;;;;;;3.27;1.80;;;;;;;;;;5084628;28;20420;-71
2023/04/13 13:33:18;;;;;;;2.43;1.67;;;;;;;;;;5085027;28;20450;-71
2023/04/13 13:35:51;;;;;;;5.40;2.87;;;;;;;;;;5085582;28;20455;-71
2023/04/13 13:38:39;;;;;;;2.23;1.20;;;;;;;;;;5087906;28;20457;-70
2023/04/13 13:41:07;;;;;;;1.73;1.10;;;;;;;;;;5099793;28;20475;-70
2023/04/13 13:46:30;;;;;;;7.70;6.90;;;;;;;;;;5102576;28;22824;-71
2023/04/13 13:49:01;;;;;;;3.27;1.37;;;;;;;;;;5089290;28;20448;-71
2023/04/13 13:51:43;;;;;;;2.50;1.13;;;;;;;;;;5074394;28;20668;-71
2023/04/13 13:57:03;;;;;;;2.40;1.60;;;;;;;;;;5065799;28;20464;-70
2023/04/13 13:59:32;;;;;;;3.07;1.53;;;;;;;;;;5064909;28;20751;-71
2023/04/13 14:02:00;;;;;;;2.17;1.00;;;;;;;;;;5064983;28;20456;-70
2023/04/13 14:04:35;;;;;;;3.13;1.30;;;;;;;;;;5065824;28;20599;-70
2023/04/13 14:07:04;;;;;;;3.23;1.40;;;;;;;;;;5071097;28;20463;-71
2023/04/13 14:09:34;;;;;;;3.03;1.73;;;;;;;;;;5086977;28;20494;-71
2023/04/13 14:12:05;;;;;;;2.10;1.17;;;;;;;;;;5089388;28;20455;-71
2023/04/13 14:14:34;;;;;;;5.07;1.60;;;;;;;;;;5086206;28;20460;-71
2023/04/13 14:17:09;;;;;;;2.47;1.17;;;;;;;;;;5088550;28;20835;-71
2023/04/13 14:19:37;;;;;;;3.00;1.23;;;;;;;;;;5070509;28;20444;-70
2023/04/13 14:22:16;;;;;;;3.30;1.80;;;;;;;;;;5089012;28;20931;-70
2023/04/13 14:24:50;;;;;;;6.73;2.00;;;;;;;;;;5082741;28;20607;-70
2023/04/13 14:27:24;;;;;;;7.10;2.30;;;;;;;;;;5065843;28;20486;-70
2023/04/13 14:32:53;;;;;;;1.83;1.00;;;;;;;;;;5086789;27;20548;-71
2023/04/13 14:35:21;;;;;;;1.90;1.10;;;;;;;;;;5095039;28;21024;-71
2023/04/13 14:37:48;;;;;;;5.73;1.63;;;;;;;;;;5090246;28;20967;-70
2023/04/13 14:40:31;;;;;;;1.87;1.10;;;;;;;;;;5092779;28;20504;-71
2023/04/13 14:43:04;;;;;;;4.00;1.20;;;;;;;;;;5086905;28;20499;-70
2023/04/13 14:45:37;;;;;;;5.03;3.20;;;;;;;;;;5093820;28;20524;-71
2023/04/13 14:54:35;;;;;;;4.17;1.10;;;;;;;;;;5102022;28;20881;-72
2023/04/13 14:57:06;;;;;;;4.80;2.23;;;;;;;;;;5098060;28;20453;-72
2023/04/13 14:59:39;;;;;;;2.60;1.50;;;;;;;;;;5103338;28;20947;-72
2023/04/13 15:02:14;;;;;;;5.37;1.83;;;;;;;;;;5105608;28;20754;-72
2023/04/13 15:04:54;;;;;;;2.47;1.30;;;;;;;;;;5105234;28;20474;-72
2023/04/13 15:07:27;;;;;;;2.20;1.00;;;;;;;;;;5103941;28;20451;-71
2023/04/13 15:09:57;;;;;;;2.73;1.20;;;;;;;;;;5097001;28;20459;-72
2023/04/13 15:12:26;;;;;;;3.13;1.50;;;;;;;;;;5101687;28;20485;-72
2023/04/13 15:14:54;;;;;;;4.30;1.33;;;;;;;;;;5098583;28;20439;-73
2023/04/13 15:17:28;;;;;;;3.30;1.87;;;;;;;;;;5103753;28;20523;-72
2023/04/13 15:19:56;;;;;;;2.83;1.90;;;;;;;;;;5102855;28;20466;-73
2023/04/13 15:22:29;;;;;;;2.07;1.17;;;;;;;;;;5108072;28;20467;-73
2023/04/13 15:24:57;;;;;;;2.23;1.20;;;;;;;;;;5107194;28;20515;-72
2023/04/13 15:27:27;;;;;;;1.63;0.77;;;;;;;;;;5104793;28;20696;-72
2023/04/13 15:29:58;;;;;;;3.70;1.03;;;;;;;;;;5105116;28;20553;-72
2023/04/13 15:32:39;;;;;;;1.93;1.07;;;;;;;;;;5108431;28;20453;-73
2023/04/13 15:35:08;;;;;;;4.13;1.17;;;;;;;;;;5099794;28;20451;-72